sensor_id;sensor_type;location;lat;lon;timestamp;P1;durP1;ratioP1;P2;durP2;ratioP2
17604;SDS011;8921;50.964;6.800;2023-08-24T00:00:42;6.77;;;3.50;;
17604;SDS011;8921;50.964;6.800;2023-08-24T00:03:10;13.63;;;3.93;;
17604;SDS011;8921;50.964;6.800;2023-08-24T00:05:39;7.27;;;3.57;;
17604;SDS011;8921;50.964;6.800;2023-08-24T00:08:07;6.80;;;3.60;;
17604;SDS011;8921;50.964;6.800;2023-08-24T00:10:35;7.13;;;3.60;;
17604;SDS011;8921;50.964;6.800;2023-08-24T00:13:03;6.90;;;3.93;;
17604;SDS011;8921;50.964;6.800;2023-08-24T00:15:32;7.90;;;3.60;;
17604;SDS011;8921;50.964;6.800;2023-08-24T00:18:00;7.17;;;3.97;;
17604;SDS011;8921;50.964;6.800;2023-08-24T00:20:28;11.43;;;4.10;;
17604;SDS011;8921;50.964;6.800;2023-08-24T00:22:59;8.20;;;3.53;;
17604;SDS011;8921;50.964;6.800;2023-08-24T00:25:27;8.63;;;3.90;;
17604;SDS011;8921;50.964;6.800;2023-08-24T00:27:56;9.10;;;4.10;;
17604;SDS011;8921;50.964;6.800;2023-08-24T00:30:24;6.20;;;3.50;;
17604;SDS011;8921;50.964;6.800;2023-08-24T00:32:52;8.50;;;3.43;;
17604;SDS011;8921;50.964;6.800;2023-08-24T00:35:21;9.67;;;3.93;;
17604;SDS011;8921;50.964;6.800;2023-08-24T00:37:49;8.90;;;3.70;;
17604;SDS011;8921;50.964;6.800;2023-08-24T00:40:17;7.30;;;3.93;;
17604;SDS011;8921;50.964;6.800;2023-08-24T00:42:45;6.57;;;3.07;;
17604;SDS011;8921;50.964;6.800;2023-08-24T00:45:14;10.00;;;3.90;;
17604;SDS011;8921;50.964;6.800;2023-08-24T00:47:43;10.70;;;4.23;;
17604;SDS011;8921;50.964;6.800;2023-08-24T00:50:10;7.50;;;4.30;;
17604;SDS011;8921;50.964;6.800;2023-08-24T00:52:39;10.53;;;4.80;;
17604;SDS011;8921;50.964;6.800;2023-08-24T00:55:07;6.40;;;4.00;;
17604;SDS011;8921;50.964;6.800;2023-08-24T00:57:35;9.77;;;3.90;;
17604;SDS011;8921;50.964;6.800;2023-08-24T01:00:04;11.60;;;4.00;;
17604;SDS011;8921;50.964;6.800;2023-08-24T01:02:32;6.70;;;3.40;;
17604;SDS011;8921;50.964;6.800;2023-08-24T01:05:00;11.00;;;3.77;;
17604;SDS011;8921;50.964;6.800;2023-08-24T01:07:28;8.00;;;3.93;;
17604;SDS011;8921;50.964;6.800;2023-08-24T01:09:57;8.70;;;3.97;;
17604;SDS011;8921;50.964;6.800;2023-08-24T01:12:32;8.47;;;4.40;;
17604;SDS011;8921;50.964;6.800;2023-08-24T01:15:29;11.53;;;4.63;;
17604;SDS011;8921;50.964;6.800;2023-08-24T01:17:55;7.50;;;3.57;;
17604;SDS011;8921;50.964;6.800;2023-08-24T01:20:23;11.80;;;4.97;;
17604;SDS011;8921;50.964;6.800;2023-08-24T01:22:58;9.27;;;4.87;;
17604;SDS011;8921;50.964;6.800;2023-08-24T01:25:39;12.03;;;4.80;;
17604;SDS011;8921;50.964;6.800;2023-08-24T01:28:06;10.47;;;4.40;;
17604;SDS011;8921;50.964;6.800;2023-08-24T01:30:34;9.00;;;4.90;;
17604;SDS011;8921;50.964;6.800;2023-08-24T01:33:03;7.93;;;4.13;;
17604;SDS011;8921;50.964;6.800;2023-08-24T01:35:31;11.03;;;4.10;;
17604;SDS011;8921;50.964;6.800;2023-08-24T01:37:59;9.97;;;4.67;;
17604;SDS011;8921;50.964;6.800;2023-08-24T01:40:34;11.40;;;4.93;;
17604;SDS011;8921;50.964;6.800;2023-08-24T01:43:05;7.03;;;3.97;;
17604;SDS011;8921;50.964;6.800;2023-08-24T01:45:32;8.50;;;5.10;;
17604;SDS011;8921;50.964;6.800;2023-08-24T01:48:02;11.13;;;5.23;;
17604;SDS011;8921;50.964;6.800;2023-08-24T01:50:32;9.43;;;5.20;;
17604;SDS011;8921;50.964;6.800;2023-08-24T01:53:00;10.03;;;5.00;;
17604;SDS011;8921;50.964;6.800;2023-08-24T01:55:29;15.00;;;5.23;;
17604;SDS011;8921;50.964;6.800;2023-08-24T01:58:13;9.20;;;4.73;;
17604;SDS011;8921;50.964;6.800;2023-08-24T02:00:41;15.83;;;5.83;;
17604;SDS011;8921;50.964;6.800;2023-08-24T02:03:10;11.10;;;6.13;;
17604;SDS011;8921;50.964;6.800;2023-08-24T02:05:38;13.93;;;6.00;;
17604;SDS011;8921;50.964;6.800;2023-08-24T02:08:06;10.20;;;5.17;;
17604;SDS011;8921;50.964;6.800;2023-08-24T02:10:35;10.00;;;5.70;;
17604;SDS011;8921;50.964;6.800;2023-08-24T02:13:03;12.23;;;5.73;;
17604;SDS011;8921;50.964;6.800;2023-08-24T02:15:31;8.83;;;4.97;;
17604;SDS011;8921;50.964;6.800;2023-08-24T02:17:59;9.90;;;5.33;;
17604;SDS011;8921;50.964;6.800;2023-08-24T02:20:28;12.53;;;5.10;;
17604;SDS011;8921;50.964;6.800;2023-08-24T02:22:56;8.50;;;5.33;;
17604;SDS011;8921;50.964;6.800;2023-08-24T02:25:24;9.50;;;4.97;;
17604;SDS011;8921;50.964;6.800;2023-08-24T02:27:53;7.57;;;4.77;;
17604;SDS011;8921;50.964;6.800;2023-08-24T02:30:21;14.63;;;5.30;;
17604;SDS011;8921;50.964;6.800;2023-08-24T02:32:49;11.10;;;5.23;;
17604;SDS011;8921;50.964;6.800;2023-08-24T02:35:17;9.73;;;5.07;;
17604;SDS011;8921;50.964;6.800;2023-08-24T02:37:46;8.60;;;4.77;;
17604;SDS011;8921;50.964;6.800;2023-08-24T02:40:14;7.97;;;5.10;;
17604;SDS011;8921;50.964;6.800;2023-08-24T02:42:42;9.37;;;5.60;;
17604;SDS011;8921;50.964;6.800;2023-08-24T02:45:11;10.37;;;5.37;;
17604;SDS011;8921;50.964;6.800;2023-08-24T02:47:39;12.87;;;5.60;;
17604;SDS011;8921;50.964;6.800;2023-08-24T02:50:07;10.57;;;5.67;;
17604;SDS011;8921;50.964;6.800;2023-08-24T02:52:36;9.50;;;4.87;;
17604;SDS011;8921;50.964;6.800;2023-08-24T02:55:04;12.83;;;5.70;;
17604;SDS011;8921;50.964;6.800;2023-08-24T02:57:34;12.00;;;5.60;;
17604;SDS011;8921;50.964;6.800;2023-08-24T03:00:01;10.53;;;5.20;;
17604;SDS011;8921;50.964;6.800;2023-08-24T03:02:29;10.50;;;5.97;;
17604;SDS011;8921;50.964;6.800;2023-08-24T03:04:57;9.13;;;4.90;;
17604;SDS011;8921;50.964;6.800;2023-08-24T03:07:26;11.70;;;4.87;;
17604;SDS011;8921;50.964;6.800;2023-08-24T03:09:54;10.50;;;5.80;;
17604;SDS011;8921;50.964;6.800;2023-08-24T03:12:22;11.77;;;6.73;;
17604;SDS011;8921;50.964;6.800;2023-08-24T03:14:51;13.20;;;6.43;;
17604;SDS011;8921;50.964;6.800;2023-08-24T03:17:19;9.40;;;5.40;;
17604;SDS011;8921;50.964;6.800;2023-08-24T03:19:47;12.27;;;5.50;;
17604;SDS011;8921;50.964;6.800;2023-08-24T03:22:15;10.03;;;5.90;;
17604;SDS011;8921;50.964;6.800;2023-08-24T03:24:44;14.90;;;6.10;;
17604;SDS011;8921;50.964;6.800;2023-08-24T03:27:12;18.07;;;5.50;;
17604;SDS011;8921;50.964;6.800;2023-08-24T03:29:40;9.60;;;4.90;;
17604;SDS011;8921;50.964;6.800;2023-08-24T03:32:09;10.63;;;5.90;;
17604;SDS011;8921;50.964;6.800;2023-08-24T03:34:37;10.33;;;6.70;;
17604;SDS011;8921;50.964;6.800;2023-08-24T03:37:05;15.90;;;6.57;;
17604;SDS011;8921;50.964;6.800;2023-08-24T03:39:36;10.73;;;6.80;;
17604;SDS011;8921;50.964;6.800;2023-08-24T03:42:02;11.27;;;6.10;;
17604;SDS011;8921;50.964;6.800;2023-08-24T03:44:30;10.10;;;5.37;;
17604;SDS011;8921;50.964;6.800;2023-08-24T03:46:58;8.10;;;5.77;;
17604;SDS011;8921;50.964;6.800;2023-08-24T03:49:27;9.90;;;6.20;;
17604;SDS011;8921;50.964;6.800;2023-08-24T03:51:55;9.33;;;5.63;;
17604;SDS011;8921;50.964;6.800;2023-08-24T03:54:23;10.80;;;5.80;;
17604;SDS011;8921;50.964;6.800;2023-08-24T03:56:52;11.47;;;5.83;;
17604;SDS011;8921;50.964;6.800;2023-08-24T03:59:20;17.53;;;5.70;;
17604;SDS011;8921;50.964;6.800;2023-08-24T04:01:48;8.80;;;5.53;;
17604;SDS011;8921;50.964;6.800;2023-08-24T04:04:16;11.80;;;6.20;;
17604;SDS011;8921;50.964;6.800;2023-08-24T04:06:45;13.30;;;6.00;;
17604;SDS011;8921;50.964;6.800;2023-08-24T04:09:13;7.97;;;5.90;;
17604;SDS011;8921;50.964;6.800;2023-08-24T04:11:41;9.70;;;5.40;;
17604;SDS011;8921;50.964;6.800;2023-08-24T04:14:10;9.90;;;5.60;;
17604;SDS011;8921;50.964;6.800;2023-08-24T04:16:38;9.90;;;6.10;;
17604;SDS011;8921;50.964;6.800;2023-08-24T04:19:06;9.07;;;4.93;;
17604;SDS011;8921;50.964;6.800;2023-08-24T04:21:35;12.60;;;5.67;;
17604;SDS011;8921;50.964;6.800;2023-08-24T04:24:03;11.93;;;5.87;;
17604;SDS011;8921;50.964;6.800;2023-08-24T04:26:31;10.87;;;5.20;;
17604;SDS011;8921;50.964;6.800;2023-08-24T04:28:59;11.63;;;6.33;;
17604;SDS011;8921;50.964;6.800;2023-08-24T04:31:28;12.97;;;6.63;;
17604;SDS011;8921;50.964;6.800;2023-08-24T04:33:56;12.57;;;6.30;;
17604;SDS011;8921;50.964;6.800;2023-08-24T04:36:24;9.67;;;5.57;;
17604;SDS011;8921;50.964;6.800;2023-08-24T04:38:53;13.23;;;6.30;;
17604;SDS011;8921;50.964;6.800;2023-08-24T04:41:21;12.13;;;6.50;;
17604;SDS011;8921;50.964;6.800;2023-08-24T04:43:49;10.40;;;6.50;;
17604;SDS011;8921;50.964;6.800;2023-08-24T04:46:18;11.00;;;6.50;;
17604;SDS011;8921;50.964;6.800;2023-08-24T04:48:46;14.73;;;7.63;;
17604;SDS011;8921;50.964;6.800;2023-08-24T04:51:14;14.13;;;8.37;;
17604;SDS011;8921;50.964;6.800;2023-08-24T04:53:42;12.73;;;7.90;;
17604;SDS011;8921;50.964;6.800;2023-08-24T04:56:11;14.13;;;8.30;;
17604;SDS011;8921;50.964;6.800;2023-08-24T04:58:39;13.03;;;8.50;;
17604;SDS011;8921;50.964;6.800;2023-08-24T05:01:07;14.23;;;8.47;;
17604;SDS011;8921;50.964;6.800;2023-08-24T05:03:36;13.70;;;9.60;;
17604;SDS011;8921;50.964;6.800;2023-08-24T05:06:04;13.77;;;8.90;;
17604;SDS011;8921;50.964;6.800;2023-08-24T05:08:32;26.20;;;14.57;;
17604;SDS011;8921;50.964;6.800;2023-08-24T05:11:01;51.57;;;36.50;;
17604;SDS011;8921;50.964;6.800;2023-08-24T05:13:29;16.63;;;9.67;;
17604;SDS011;8921;50.964;6.800;2023-08-24T05:15:57;13.57;;;10.17;;
17604;SDS011;8921;50.964;6.800;2023-08-24T05:18:26;17.90;;;9.20;;
17604;SDS011;8921;50.964;6.800;2023-08-24T05:20:54;16.13;;;10.87;;
17604;SDS011;8921;50.964;6.800;2023-08-24T05:23:22;15.97;;;11.03;;
17604;SDS011;8921;50.964;6.800;2023-08-24T05:25:51;16.40;;;10.70;;
17604;SDS011;8921;50.964;6.800;2023-08-24T05:28:19;17.40;;;9.97;;
17604;SDS011;8921;50.964;6.800;2023-08-24T05:30:47;16.57;;;9.90;;
17604;SDS011;8921;50.964;6.800;2023-08-24T05:33:15;14.83;;;9.60;;
17604;SDS011;8921;50.964;6.800;2023-08-24T05:35:44;15.67;;;9.23;;
17604;SDS011;8921;50.964;6.800;2023-08-24T05:38:12;15.70;;;10.60;;
17604;SDS011;8921;50.964;6.800;2023-08-24T05:40:41;14.10;;;10.07;;
17604;SDS011;8921;50.964;6.800;2023-08-24T05:43:09;14.30;;;9.53;;
17604;SDS011;8921;50.964;6.800;2023-08-24T05:45:37;13.10;;;8.37;;
17604;SDS011;8921;50.964;6.800;2023-08-24T05:48:06;14.73;;;9.50;;
17604;SDS011;8921;50.964;6.800;2023-08-24T05:50:34;13.33;;;9.20;;
17604;SDS011;8921;50.964;6.800;2023-08-24T05:53:02;12.40;;;9.03;;
17604;SDS011;8921;50.964;6.800;2023-08-24T05:55:31;14.03;;;9.00;;
17604;SDS011;8921;50.964;6.800;2023-08-24T05:57:59;14.17;;;9.47;;
17604;SDS011;8921;50.964;6.800;2023-08-24T06:00:27;14.03;;;8.67;;
17604;SDS011;8921;50.964;6.800;2023-08-24T06:02:55;13.90;;;8.87;;
17604;SDS011;8921;50.964;6.800;2023-08-24T06:05:24;13.40;;;9.53;;
17604;SDS011;8921;50.964;6.800;2023-08-24T06:07:52;14.90;;;8.73;;
17604;SDS011;8921;50.964;6.800;2023-08-24T06:10:20;14.47;;;8.87;;
17604;SDS011;8921;50.964;6.800;2023-08-24T06:12:49;13.10;;;8.90;;
17604;SDS011;8921;50.964;6.800;2023-08-24T06:15:17;16.60;;;9.07;;
17604;SDS011;8921;50.964;6.800;2023-08-24T06:17:45;14.77;;;8.90;;
17604;SDS011;8921;50.964;6.800;2023-08-24T06:20:14;15.13;;;7.90;;
17604;SDS011;8921;50.964;6.800;2023-08-24T06:22:42;13.20;;;7.83;;
17604;SDS011;8921;50.964;6.800;2023-08-24T06:25:10;11.50;;;7.90;;
17604;SDS011;8921;50.964;6.800;2023-08-24T06:27:39;14.97;;;8.77;;
17604;SDS011;8921;50.964;6.800;2023-08-24T06:30:07;14.77;;;8.10;;
17604;SDS011;8921;50.964;6.800;2023-08-24T06:32:35;20.87;;;8.97;;
17604;SDS011;8921;50.964;6.800;2023-08-24T06:35:04;18.00;;;9.30;;
17604;SDS011;8921;50.964;6.800;2023-08-24T06:37:32;10.17;;;8.10;;
17604;SDS011;8921;50.964;6.800;2023-08-24T06:40:00;12.03;;;7.70;;
17604;SDS011;8921;50.964;6.800;2023-08-24T06:42:29;11.80;;;7.00;;
17604;SDS011;8921;50.964;6.800;2023-08-24T06:44:57;11.17;;;8.03;;
17604;SDS011;8921;50.964;6.800;2023-08-24T06:47:25;11.53;;;7.30;;
17604;SDS011;8921;50.964;6.800;2023-08-24T06:49:54;15.93;;;8.73;;
17604;SDS011;8921;50.964;6.800;2023-08-24T06:52:22;12.77;;;8.50;;
17604;SDS011;8921;50.964;6.800;2023-08-24T06:54:50;12.10;;;7.40;;
17604;SDS011;8921;50.964;6.800;2023-08-24T06:57:19;12.47;;;7.60;;
17604;SDS011;8921;50.964;6.800;2023-08-24T06:59:47;12.60;;;7.57;;
17604;SDS011;8921;50.964;6.800;2023-08-24T07:02:15;10.17;;;7.40;;
17604;SDS011;8921;50.964;6.800;2023-08-24T07:04:44;10.67;;;6.13;;
17604;SDS011;8921;50.964;6.800;2023-08-24T07:07:12;11.00;;;6.77;;
17604;SDS011;8921;50.964;6.800;2023-08-24T07:09:40;9.90;;;5.57;;
17604;SDS011;8921;50.964;6.800;2023-08-24T07:12:08;13.57;;;6.30;;
17604;SDS011;8921;50.964;6.800;2023-08-24T07:14:37;16.67;;;7.03;;
17604;SDS011;8921;50.964;6.800;2023-08-24T07:17:05;11.47;;;6.80;;
17604;SDS011;8921;50.964;6.800;2023-08-24T07:19:33;10.87;;;5.90;;
17604;SDS011;8921;50.964;6.800;2023-08-24T07:22:02;15.07;;;6.57;;
17604;SDS011;8921;50.964;6.800;2023-08-24T07:24:30;14.97;;;7.40;;
17604;SDS011;8921;50.964;6.800;2023-08-24T07:26:58;10.73;;;5.80;;
17604;SDS011;8921;50.964;6.800;2023-08-24T07:29:26;10.27;;;5.60;;
17604;SDS011;8921;50.964;6.800;2023-08-24T07:31:55;10.60;;;5.40;;
17604;SDS011;8921;50.964;6.800;2023-08-24T07:34:23;11.77;;;5.43;;
17604;SDS011;8921;50.964;6.800;2023-08-24T07:36:51;11.30;;;6.40;;
17604;SDS011;8921;50.964;6.800;2023-08-24T07:39:20;14.33;;;5.57;;
17604;SDS011;8921;50.964;6.800;2023-08-24T07:41:48;9.87;;;5.80;;
17604;SDS011;8921;50.964;6.800;2023-08-24T07:44:16;11.47;;;5.80;;
17604;SDS011;8921;50.964;6.800;2023-08-24T07:46:45;13.27;;;5.47;;
17604;SDS011;8921;50.964;6.800;2023-08-24T07:49:13;18.73;;;6.30;;
17604;SDS011;8921;50.964;6.800;2023-08-24T07:51:41;11.20;;;5.83;;
17604;SDS011;8921;50.964;6.800;2023-08-24T07:54:09;13.60;;;5.60;;
17604;SDS011;8921;50.964;6.800;2023-08-24T07:56:38;9.53;;;4.77;;
17604;SDS011;8921;50.964;6.800;2023-08-24T07:59:06;9.67;;;5.10;;
17604;SDS011;8921;50.964;6.800;2023-08-24T08:01:34;7.60;;;4.70;;
17604;SDS011;8921;50.964;6.800;2023-08-24T08:04:03;10.70;;;5.33;;
17604;SDS011;8921;50.964;6.800;2023-08-24T08:06:31;9.50;;;4.27;;
17604;SDS011;8921;50.964;6.800;2023-08-24T08:08:59;8.27;;;4.80;;
17604;SDS011;8921;50.964;6.800;2023-08-24T08:11:27;10.13;;;5.20;;
17604;SDS011;8921;50.964;6.800;2023-08-24T08:13:56;9.50;;;5.20;;
17604;SDS011;8921;50.964;6.800;2023-08-24T08:16:24;17.90;;;5.40;;
17604;SDS011;8921;50.964;6.800;2023-08-24T08:18:52;11.83;;;5.43;;
17604;SDS011;8921;50.964;6.800;2023-08-24T08:21:21;10.50;;;5.00;;
17604;SDS011;8921;50.964;6.800;2023-08-24T08:23:49;12.57;;;4.83;;
17604;SDS011;8921;50.964;6.800;2023-08-24T08:26:17;9.23;;;4.43;;
17604;SDS011;8921;50.964;6.800;2023-08-24T08:28:45;9.13;;;4.60;;
17604;SDS011;8921;50.964;6.800;2023-08-24T08:31:14;8.10;;;4.50;;
17604;SDS011;8921;50.964;6.800;2023-08-24T08:33:42;9.27;;;4.43;;
17604;SDS011;8921;50.964;6.800;2023-08-24T08:36:10;8.67;;;4.10;;
17604;SDS011;8921;50.964;6.800;2023-08-24T08:38:39;11.70;;;5.43;;
17604;SDS011;8921;50.964;6.800;2023-08-24T08:41:07;6.60;;;4.33;;
17604;SDS011;8921;50.964;6.800;2023-08-24T08:43:35;8.50;;;4.43;;
17604;SDS011;8921;50.964;6.800;2023-08-24T08:46:04;10.80;;;4.50;;
17604;SDS011;8921;50.964;6.800;2023-08-24T08:48:32;17.93;;;4.50;;
17604;SDS011;8921;50.964;6.800;2023-08-24T08:51:00;8.47;;;3.80;;
17604;SDS011;8921;50.964;6.800;2023-08-24T08:53:28;10.03;;;4.30;;
17604;SDS011;8921;50.964;6.800;2023-08-24T08:55:57;9.07;;;4.13;;
17604;SDS011;8921;50.964;6.800;2023-08-24T08:58:25;7.23;;;4.13;;
17604;SDS011;8921;50.964;6.800;2023-08-24T09:00:54;14.10;;;4.73;;
17604;SDS011;8921;50.964;6.800;2023-08-24T09:03:22;8.13;;;4.20;;
17604;SDS011;8921;50.964;6.800;2023-08-24T09:05:50;10.93;;;4.10;;
17604;SDS011;8921;50.964;6.800;2023-08-24T09:08:18;7.67;;;3.77;;
17604;SDS011;8921;50.964;6.800;2023-08-24T09:10:47;13.83;;;4.00;;
17604;SDS011;8921;50.964;6.800;2023-08-24T09:13:15;12.40;;;3.47;;
17604;SDS011;8921;50.964;6.800;2023-08-24T09:15:43;6.03;;;3.70;;
17604;SDS011;8921;50.964;6.800;2023-08-24T09:18:12;8.93;;;3.53;;
17604;SDS011;8921;50.964;6.800;2023-08-24T09:20:40;7.30;;;3.63;;
17604;SDS011;8921;50.964;6.800;2023-08-24T09:23:17;11.83;;;4.57;;
17604;SDS011;8921;50.964;6.800;2023-08-24T09:25:44;10.07;;;3.60;;
17604;SDS011;8921;50.964;6.800;2023-08-24T09:28:05;8.40;;;4.40;;
17604;SDS011;8921;50.964;6.800;2023-08-24T09:30:36;9.30;;;3.60;;
17604;SDS011;8921;50.964;6.800;2023-08-24T09:33:09;9.17;;;3.47;;
17604;SDS011;8921;50.964;6.800;2023-08-24T09:35:34;7.20;;;3.50;;
17604;SDS011;8921;50.964;6.800;2023-08-24T09:38:01;11.80;;;4.30;;
17604;SDS011;8921;50.964;6.800;2023-08-24T09:40:29;13.27;;;5.73;;
17604;SDS011;8921;50.964;6.800;2023-08-24T09:42:57;11.20;;;3.53;;
17604;SDS011;8921;50.964;6.800;2023-08-24T09:45:26;6.93;;;3.50;;
17604;SDS011;8921;50.964;6.800;2023-08-24T09:47:54;8.70;;;3.60;;
17604;SDS011;8921;50.964;6.800;2023-08-24T09:50:23;18.83;;;6.33;;
17604;SDS011;8921;50.964;6.800;2023-08-24T09:52:51;14.73;;;5.57;;
17604;SDS011;8921;50.964;6.800;2023-08-24T09:55:20;10.80;;;5.13;;
17604;SDS011;8921;50.964;6.800;2023-08-24T09:57:48;9.87;;;3.93;;
17604;SDS011;8921;50.964;6.800;2023-08-24T10:00:17;7.80;;;3.30;;
17604;SDS011;8921;50.964;6.800;2023-08-24T10:02:52;6.70;;;3.70;;
17604;SDS011;8921;50.964;6.800;2023-08-24T10:05:20;9.03;;;3.90;;
17604;SDS011;8921;50.964;6.800;2023-08-24T10:07:49;10.03;;;3.80;;
17604;SDS011;8921;50.964;6.800;2023-08-24T10:10:19;9.10;;;5.53;;
17604;SDS011;8921;50.964;6.800;2023-08-24T10:12:49;10.13;;;3.90;;
17604;SDS011;8921;50.964;6.800;2023-08-24T10:15:15;9.53;;;4.17;;
17604;SDS011;8921;50.964;6.800;2023-08-24T10:17:44;12.60;;;3.73;;
17604;SDS011;8921;50.964;6.800;2023-08-24T10:20:12;7.43;;;3.53;;
17604;SDS011;8921;50.964;6.800;2023-08-24T10:22:40;7.17;;;3.30;;
17604;SDS011;8921;50.964;6.800;2023-08-24T10:25:09;11.63;;;4.00;;
17604;SDS011;8921;50.964;6.800;2023-08-24T10:27:37;10.27;;;4.23;;
17604;SDS011;8921;50.964;6.800;2023-08-24T10:30:05;8.97;;;3.60;;
17604;SDS011;8921;50.964;6.800;2023-08-24T10:32:34;9.00;;;3.90;;
17604;SDS011;8921;50.964;6.800;2023-08-24T10:35:02;6.73;;;3.50;;
17604;SDS011;8921;50.964;6.800;2023-08-24T10:37:31;7.80;;;4.13;;
17604;SDS011;8921;50.964;6.800;2023-08-24T10:39:59;7.70;;;3.60;;
17604;SDS011;8921;50.964;6.800;2023-08-24T10:42:27;9.57;;;4.07;;
17604;SDS011;8921;50.964;6.800;2023-08-24T10:44:55;11.00;;;4.40;;
17604;SDS011;8921;50.964;6.800;2023-08-24T10:47:24;9.63;;;3.90;;
17604;SDS011;8921;50.964;6.800;2023-08-24T10:52:24;6.37;;;3.00;;
17604;SDS011;8921;50.964;6.800;2023-08-24T10:54:52;8.60;;;3.97;;
17604;SDS011;8921;50.964;6.800;2023-08-24T10:57:20;6.60;;;3.50;;
17604;SDS011;8921;50.964;6.800;2023-08-24T11:00:03;11.70;;;3.90;;
17604;SDS011;8921;50.964;6.800;2023-08-24T11:05:18;6.73;;;3.60;;
17604;SDS011;8921;50.964;6.800;2023-08-24T11:07:52;6.50;;;3.33;;
17604;SDS011;8921;50.964;6.800;2023-08-24T11:10:20;11.43;;;3.60;;
17604;SDS011;8921;50.964;6.800;2023-08-24T11:20:51;7.00;;;3.10;;
17604;SDS011;8921;50.964;6.800;2023-08-24T11:23:24;8.33;;;3.30;;
17604;SDS011;8921;50.964;6.800;2023-08-24T11:25:52;12.53;;;4.10;;
17604;SDS011;8921;50.964;6.800;2023-08-24T11:28:23;8.73;;;3.33;;
17604;SDS011;8921;50.964;6.800;2023-08-24T11:30:52;6.90;;;2.87;;
17604;SDS011;8921;50.964;6.800;2023-08-24T11:33:26;10.13;;;3.87;;
17604;SDS011;8921;50.964;6.800;2023-08-24T11:35:57;8.30;;;3.40;;
17604;SDS011;8921;50.964;6.800;2023-08-24T11:38:34;11.73;;;4.20;;
17604;SDS011;8921;50.964;6.800;2023-08-24T11:40:53;15.43;;;4.57;;
17604;SDS011;8921;50.964;6.800;2023-08-24T11:43:25;8.57;;;3.33;;
17604;SDS011;8921;50.964;6.800;2023-08-24T11:45:53;7.23;;;3.80;;
17604;SDS011;8921;50.964;6.800;2023-08-24T11:48:24;10.30;;;3.80;;
17604;SDS011;8921;50.964;6.800;2023-08-24T11:50:52;8.47;;;3.50;;
17604;SDS011;8921;50.964;6.800;2023-08-24T11:53:21;6.90;;;3.30;;
17604;SDS011;8921;50.964;6.800;2023-08-24T11:55:49;6.43;;;3.67;;
17604;SDS011;8921;50.964;6.800;2023-08-24T11:58:17;6.50;;;3.30;;
17604;SDS011;8921;50.964;6.800;2023-08-24T12:00:45;7.43;;;3.30;;
17604;SDS011;8921;50.964;6.800;2023-08-24T12:03:14;8.10;;;3.43;;
17604;SDS011;8921;50.964;6.800;2023-08-24T12:05:42;9.03;;;4.70;;
17604;SDS011;8921;50.964;6.800;2023-08-24T12:08:11;11.93;;;4.00;;
17604;SDS011;8921;50.964;6.800;2023-08-24T12:10:44;10.33;;;5.27;;
17604;SDS011;8921;50.964;6.800;2023-08-24T12:13:13;11.17;;;4.70;;
17604;SDS011;8921;50.964;6.800;2023-08-24T12:15:41;11.30;;;4.20;;
17604;SDS011;8921;50.964;6.800;2023-08-24T12:18:10;8.40;;;3.70;;
17604;SDS011;8921;50.964;6.800;2023-08-24T12:20:38;10.90;;;4.47;;
17604;SDS011;8921;50.964;6.800;2023-08-24T12:23:06;8.27;;;4.13;;
17604;SDS011;8921;50.964;6.800;2023-08-24T12:25:37;11.27;;;6.30;;
17604;SDS011;8921;50.964;6.800;2023-08-24T12:28:08;13.00;;;4.33;;
17604;SDS011;8921;50.964;6.800;2023-08-24T12:33:23;10.53;;;4.40;;
17604;SDS011;8921;50.964;6.800;2023-08-24T12:35:51;15.43;;;4.00;;
17604;SDS011;8921;50.964;6.800;2023-08-24T12:38:19;10.43;;;4.17;;
17604;SDS011;8921;50.964;6.800;2023-08-24T12:40:47;10.20;;;4.83;;
17604;SDS011;8921;50.964;6.800;2023-08-24T12:43:15;10.20;;;5.07;;
17604;SDS011;8921;50.964;6.800;2023-08-24T12:45:44;8.60;;;4.10;;
17604;SDS011;8921;50.964;6.800;2023-08-24T12:48:12;17.13;;;4.90;;
17604;SDS011;8921;50.964;6.800;2023-08-24T12:50:40;10.10;;;4.60;;
17604;SDS011;8921;50.964;6.800;2023-08-24T12:53:09;10.83;;;4.57;;
17604;SDS011;8921;50.964;6.800;2023-08-24T12:55:38;10.50;;;5.17;;
17604;SDS011;8921;50.964;6.800;2023-08-24T12:58:05;14.33;;;4.80;;
17604;SDS011;8921;50.964;6.800;2023-08-24T13:00:33;11.17;;;5.00;;
17604;SDS011;8921;50.964;6.800;2023-08-24T13:03:02;9.17;;;4.57;;
17604;SDS011;8921;50.964;6.800;2023-08-24T13:05:30;13.13;;;5.70;;
17604;SDS011;8921;50.964;6.800;2023-08-24T13:07:58;9.90;;;4.40;;
17604;SDS011;8921;50.964;6.800;2023-08-24T13:10:26;12.53;;;4.77;;
17604;SDS011;8921;50.964;6.800;2023-08-24T13:12:55;9.17;;;4.57;;
17604;SDS011;8921;50.964;6.800;2023-08-24T13:15:23;9.17;;;4.47;;
17604;SDS011;8921;50.964;6.800;2023-08-24T13:17:51;10.20;;;5.17;;
17604;SDS011;8921;50.964;6.800;2023-08-24T13:20:20;9.83;;;3.70;;
17604;SDS011;8921;50.964;6.800;2023-08-24T13:22:48;8.43;;;4.30;;
17604;SDS011;8921;50.964;6.800;2023-08-24T13:25:16;11.97;;;5.50;;
17604;SDS011;8921;50.964;6.800;2023-08-24T13:27:45;12.17;;;4.43;;
17604;SDS011;8921;50.964;6.800;2023-08-24T13:30:13;12.83;;;6.73;;
17604;SDS011;8921;50.964;6.800;2023-08-24T13:32:41;8.60;;;3.80;;
17604;SDS011;8921;50.964;6.800;2023-08-24T13:35:09;8.47;;;3.80;;
17604;SDS011;8921;50.964;6.800;2023-08-24T13:37:38;10.00;;;4.47;;
17604;SDS011;8921;50.964;6.800;2023-08-24T13:40:06;6.70;;;3.20;;
17604;SDS011;8921;50.964;6.800;2023-08-24T13:42:35;7.90;;;3.57;;
17604;SDS011;8921;50.964;6.800;2023-08-24T13:45:03;11.43;;;4.20;;
17604;SDS011;8921;50.964;6.800;2023-08-24T13:47:31;9.23;;;4.20;;
17604;SDS011;8921;50.964;6.800;2023-08-24T13:50:00;10.77;;;4.63;;
17604;SDS011;8921;50.964;6.800;2023-08-24T13:52:28;9.70;;;3.63;;
17604;SDS011;8921;50.964;6.800;2023-08-24T13:54:56;11.93;;;3.97;;
17604;SDS011;8921;50.964;6.800;2023-08-24T13:57:24;6.10;;;3.37;;
17604;SDS011;8921;50.964;6.800;2023-08-24T13:59:53;6.67;;;3.40;;
17604;SDS011;8921;50.964;6.800;2023-08-24T14:02:21;8.23;;;3.30;;
17604;SDS011;8921;50.964;6.800;2023-08-24T14:04:49;9.73;;;4.40;;
17604;SDS011;8921;50.964;6.800;2023-08-24T14:07:18;8.73;;;3.17;;
17604;SDS011;8921;50.964;6.800;2023-08-24T14:09:46;6.57;;;2.80;;
17604;SDS011;8921;50.964;6.800;2023-08-24T14:12:14;9.17;;;2.83;;
17604;SDS011;8921;50.964;6.800;2023-08-24T14:14:42;7.33;;;3.43;;
17604;SDS011;8921;50.964;6.800;2023-08-24T14:17:11;7.33;;;2.80;;
17604;SDS011;8921;50.964;6.800;2023-08-24T14:19:39;8.20;;;3.67;;
17604;SDS011;8921;50.964;6.800;2023-08-24T14:22:07;8.73;;;3.30;;
17604;SDS011;8921;50.964;6.800;2023-08-24T14:24:36;14.73;;;4.60;;
17604;SDS011;8921;50.964;6.800;2023-08-24T14:27:04;7.00;;;3.50;;
17604;SDS011;8921;50.964;6.800;2023-08-24T14:29:32;6.83;;;3.33;;
17604;SDS011;8921;50.964;6.800;2023-08-24T14:32:01;14.30;;;3.53;;
17604;SDS011;8921;50.964;6.800;2023-08-24T14:34:29;6.90;;;3.47;;
17604;SDS011;8921;50.964;6.800;2023-08-24T14:36:57;8.27;;;4.60;;
17604;SDS011;8921;50.964;6.800;2023-08-24T14:39:25;12.10;;;3.87;;
17604;SDS011;8921;50.964;6.800;2023-08-24T14:41:54;9.33;;;3.97;;
17604;SDS011;8921;50.964;6.800;2023-08-24T14:44:22;8.07;;;4.40;;
17604;SDS011;8921;50.964;6.800;2023-08-24T14:46:50;8.57;;;3.60;;
17604;SDS011;8921;50.964;6.800;2023-08-24T14:49:19;6.53;;;2.50;;
17604;SDS011;8921;50.964;6.800;2023-08-24T14:51:47;7.33;;;3.83;;
17604;SDS011;8921;50.964;6.800;2023-08-24T14:54:15;10.67;;;3.60;;
17604;SDS011;8921;50.964;6.800;2023-08-24T14:56:43;11.43;;;3.90;;
17604;SDS011;8921;50.964;6.800;2023-08-24T14:59:12;8.50;;;3.73;;
17604;SDS011;8921;50.964;6.800;2023-08-24T15:01:40;9.43;;;4.10;;
17604;SDS011;8921;50.964;6.800;2023-08-24T15:04:08;8.50;;;3.20;;
17604;SDS011;8921;50.964;6.800;2023-08-24T15:06:37;11.30;;;3.60;;
17604;SDS011;8921;50.964;6.800;2023-08-24T15:09:05;8.23;;;3.33;;
17604;SDS011;8921;50.964;6.800;2023-08-24T15:11:33;7.63;;;3.57;;
17604;SDS011;8921;50.964;6.800;2023-08-24T15:14:01;6.70;;;3.37;;
17604;SDS011;8921;50.964;6.800;2023-08-24T15:16:30;11.20;;;4.20;;